sensor_id;sensor_type;location;lat;lon;timestamp;P1;durP1;ratioP1;P2;durP2;ratioP2
43042;SDS011;28667;50.758;6.096;2023-01-23T00:00:53;38.72;;;12.90;;
43042;SDS011;28667;50.758;6.096;2023-01-23T00:03:20;41.10;;;14.07;;
43042;SDS011;28667;50.758;6.096;2023-01-23T00:05:55;35.50;;;12.48;;
43042;SDS011;28667;50.758;6.096;2023-01-23T00:08:24;49.45;;;13.32;;
43042;SDS011;28667;50.758;6.096;2023-01-23T00:10:51;36.80;;;11.95;;
43042;SDS011;28667;50.758;6.096;2023-01-23T00:13:16;40.22;;;12.23;;
43042;SDS011;28667;50.758;6.096;2023-01-23T00:15:42;43.45;;;14.07;;
43042;SDS011;28667;50.758;6.096;2023-01-23T00:18:08;42.38;;;12.82;;
43042;SDS011;28667;50.758;6.096;2023-01-23T00:20:37;44.70;;;13.65;;
43042;SDS011;28667;50.758;6.096;2023-01-23T00:23:04;43.35;;;12.27;;
43042;SDS011;28667;50.758;6.096;2023-01-23T00:25:30;48.63;;;13.07;;
43042;SDS011;28667;50.758;6.096;2023-01-23T00:27:57;43.35;;;12.52;;
43042;SDS011;28667;50.758;6.096;2023-01-23T00:30:23;40.58;;;12.63;;
43042;SDS011;28667;50.758;6.096;2023-01-23T00:32:48;37.72;;;12.68;;
43042;SDS011;28667;50.758;6.096;2023-01-23T00:35:14;39.83;;;12.80;;
43042;SDS011;28667;50.758;6.096;2023-01-23T00:37:40;50.90;;;15.52;;
43042;SDS011;28667;50.758;6.096;2023-01-23T00:40:07;49.08;;;13.50;;
43042;SDS011;28667;50.758;6.096;2023-01-23T00:42:33;45.50;;;12.90;;
43042;SDS011;28667;50.758;6.096;2023-01-23T00:44:59;46.58;;;14.93;;
43042;SDS011;28667;50.758;6.096;2023-01-23T00:47:24;40.08;;;13.13;;
43042;SDS011;28667;50.758;6.096;2023-01-23T00:49:50;36.75;;;11.55;;
43042;SDS011;28667;50.758;6.096;2023-01-23T00:52:18;44.53;;;12.32;;
43042;SDS011;28667;50.758;6.096;2023-01-23T00:54:46;42.70;;;12.88;;
43042;SDS011;28667;50.758;6.096;2023-01-23T00:57:11;45.53;;;13.52;;
43042;SDS011;28667;50.758;6.096;2023-01-23T00:59:39;37.55;;;13.43;;
43042;SDS011;28667;50.758;6.096;2023-01-23T01:02:05;42.97;;;13.10;;
43042;SDS011;28667;50.758;6.096;2023-01-23T01:04:31;39.67;;;13.00;;
43042;SDS011;28667;50.758;6.096;2023-01-23T01:06:56;33.05;;;10.88;;
43042;SDS011;28667;50.758;6.096;2023-01-23T01:09:22;38.03;;;13.38;;
43042;SDS011;28667;50.758;6.096;2023-01-23T01:11:49;52.38;;;13.23;;
43042;SDS011;28667;50.758;6.096;2023-01-23T01:14:15;43.97;;;13.02;;
43042;SDS011;28667;50.758;6.096;2023-01-23T01:16:41;46.35;;;13.50;;
43042;SDS011;28667;50.758;6.096;2023-01-23T01:19:10;34.72;;;12.57;;
43042;SDS011;28667;50.758;6.096;2023-01-23T01:21:38;39.25;;;12.65;;
43042;SDS011;28667;50.758;6.096;2023-01-23T01:24:04;36.78;;;11.93;;
43042;SDS011;28667;50.758;6.096;2023-01-23T01:26:30;42.85;;;12.68;;
43042;SDS011;28667;50.758;6.096;2023-01-23T01:28:55;36.35;;;11.75;;
43042;SDS011;28667;50.758;6.096;2023-01-23T01:31:21;42.28;;;13.32;;
43042;SDS011;28667;50.758;6.096;2023-01-23T01:33:48;37.85;;;12.05;;
43042;SDS011;28667;50.758;6.096;2023-01-23T01:36:17;42.25;;;11.82;;
43042;SDS011;28667;50.758;6.096;2023-01-23T01:38:45;34.90;;;12.02;;
43042;SDS011;28667;50.758;6.096;2023-01-23T01:41:11;31.52;;;11.13;;
43042;SDS011;28667;50.758;6.096;2023-01-23T01:43:38;36.22;;;11.73;;
43042;SDS011;28667;50.758;6.096;2023-01-23T01:46:37;39.60;;;12.48;;
43042;SDS011;28667;50.758;6.096;2023-01-23T01:49:06;49.78;;;13.93;;
43042;SDS011;28667;50.758;6.096;2023-01-23T01:51:46;42.88;;;12.20;;
43042;SDS011;28667;50.758;6.096;2023-01-23T01:57:19;43.47;;;12.07;;
43042;SDS011;28667;50.758;6.096;2023-01-23T02:00:18;45.65;;;14.07;;
43042;SDS011;28667;50.758;6.096;2023-01-23T02:02:55;39.38;;;11.13;;
43042;SDS011;28667;50.758;6.096;2023-01-23T02:05:24;43.80;;;12.07;;
43042;SDS011;28667;50.758;6.096;2023-01-23T02:10:37;37.15;;;11.00;;
43042;SDS011;28667;50.758;6.096;2023-01-23T02:13:24;42.83;;;12.68;;
43042;SDS011;28667;50.758;6.096;2023-01-23T02:15:54;44.70;;;13.00;;
43042;SDS011;28667;50.758;6.096;2023-01-23T02:18:22;31.05;;;12.00;;
43042;SDS011;28667;50.758;6.096;2023-01-23T02:20:50;45.42;;;11.68;;
43042;SDS011;28667;50.758;6.096;2023-01-23T02:23:33;38.90;;;12.35;;
43042;SDS011;28667;50.758;6.096;2023-01-23T02:26:29;32.90;;;10.75;;
43042;SDS011;28667;50.758;6.096;2023-01-23T02:29:00;46.58;;;13.98;;
43042;SDS011;28667;50.758;6.096;2023-01-23T02:31:31;33.42;;;9.13;;
43042;SDS011;28667;50.758;6.096;2023-01-23T02:33:57;36.58;;;12.00;;
43042;SDS011;28667;50.758;6.096;2023-01-23T02:36:25;42.83;;;12.45;;
43042;SDS011;28667;50.758;6.096;2023-01-23T02:39:03;37.15;;;11.02;;
43042;SDS011;28667;50.758;6.096;2023-01-23T02:41:44;37.45;;;11.98;;
43042;SDS011;28667;50.758;6.096;2023-01-23T02:44:14;38.83;;;11.90;;
43042;SDS011;28667;50.758;6.096;2023-01-23T02:46:50;35.80;;;11.02;;
43042;SDS011;28667;50.758;6.096;2023-01-23T02:49:16;43.85;;;11.10;;
43042;SDS011;28667;50.758;6.096;2023-01-23T02:51:42;39.53;;;12.35;;
43042;SDS011;28667;50.758;6.096;2023-01-23T02:54:08;43.88;;;12.27;;
43042;SDS011;28667;50.758;6.096;2023-01-23T02:56:33;51.45;;;13.07;;
43042;SDS011;28667;50.758;6.096;2023-01-23T02:58:59;30.60;;;9.98;;
43042;SDS011;28667;50.758;6.096;2023-01-23T03:01:44;36.00;;;13.37;;
43042;SDS011;28667;50.758;6.096;2023-01-23T03:04:10;40.25;;;11.65;;
43042;SDS011;28667;50.758;6.096;2023-01-23T03:06:36;53.42;;;11.02;;
43042;SDS011;28667;50.758;6.096;2023-01-23T03:09:07;45.75;;;13.73;;
43042;SDS011;28667;50.758;6.096;2023-01-23T03:11:36;34.05;;;10.95;;
43042;SDS011;28667;50.758;6.096;2023-01-23T03:14:03;38.40;;;11.40;;
43042;SDS011;28667;50.758;6.096;2023-01-23T03:16:31;33.17;;;12.07;;
43042;SDS011;28667;50.758;6.096;2023-01-23T03:18:59;36.35;;;11.57;;
43042;SDS011;28667;50.758;6.096;2023-01-23T03:21:30;38.10;;;11.60;;
43042;SDS011;28667;50.758;6.096;2023-01-23T03:23:59;37.53;;;11.30;;
43042;SDS011;28667;50.758;6.096;2023-01-23T03:26:25;46.75;;;10.73;;
43042;SDS011;28667;50.758;6.096;2023-01-23T03:28:51;37.35;;;10.98;;
43042;SDS011;28667;50.758;6.096;2023-01-23T03:31:35;42.72;;;11.77;;
43042;SDS011;28667;50.758;6.096;2023-01-23T03:34:00;27.05;;;10.10;;
43042;SDS011;28667;50.758;6.096;2023-01-23T03:36:27;37.65;;;12.90;;
43042;SDS011;28667;50.758;6.096;2023-01-23T03:38:53;39.92;;;11.00;;
43042;SDS011;28667;50.758;6.096;2023-01-23T03:41:37;35.97;;;10.55;;
43042;SDS011;28667;50.758;6.096;2023-01-23T03:44:07;33.08;;;10.55;;
43042;SDS011;28667;50.758;6.096;2023-01-23T03:46:33;37.65;;;11.80;;
43042;SDS011;28667;50.758;6.096;2023-01-23T03:48:59;32.03;;;10.70;;
43042;SDS011;28667;50.758;6.096;2023-01-23T03:51:25;34.38;;;12.15;;
43042;SDS011;28667;50.758;6.096;2023-01-23T03:53:52;29.20;;;11.48;;
43042;SDS011;28667;50.758;6.096;2023-01-23T03:56:18;31.50;;;11.40;;
43042;SDS011;28667;50.758;6.096;2023-01-23T03:58:43;31.85;;;10.32;;
43042;SDS011;28667;50.758;6.096;2023-01-23T04:01:11;30.73;;;10.10;;
43042;SDS011;28667;50.758;6.096;2023-01-23T04:03:40;37.50;;;10.20;;
43042;SDS011;28667;50.758;6.096;2023-01-23T04:06:06;28.63;;;9.60;;
43042;SDS011;28667;50.758;6.096;2023-01-23T04:08:32;31.48;;;10.35;;
43042;SDS011;28667;50.758;6.096;2023-01-23T04:10:59;46.63;;;12.48;;
43042;SDS011;28667;50.758;6.096;2023-01-23T04:13:29;34.35;;;10.68;;
43042;SDS011;28667;50.758;6.096;2023-01-23T04:15:58;28.98;;;9.45;;
43042;SDS011;28667;50.758;6.096;2023-01-23T04:18:25;27.27;;;10.95;;
43042;SDS011;28667;50.758;6.096;2023-01-23T04:20:52;27.38;;;9.23;;
43042;SDS011;28667;50.758;6.096;2023-01-23T04:23:18;32.67;;;9.57;;
43042;SDS011;28667;50.758;6.096;2023-01-23T04:25:44;29.65;;;9.90;;
43042;SDS011;28667;50.758;6.096;2023-01-23T04:28:12;40.30;;;11.45;;
43042;SDS011;28667;50.758;6.096;2023-01-23T04:30:38;35.58;;;12.55;;
43042;SDS011;28667;50.758;6.096;2023-01-23T04:33:12;27.95;;;9.52;;
43042;SDS011;28667;50.758;6.096;2023-01-23T04:35:38;24.10;;;9.10;;
43042;SDS011;28667;50.758;6.096;2023-01-23T04:38:04;25.10;;;8.73;;
43042;SDS011;28667;50.758;6.096;2023-01-23T04:40:29;29.38;;;10.93;;
43042;SDS011;28667;50.758;6.096;2023-01-23T04:42:58;20.88;;;8.88;;
43042;SDS011;28667;50.758;6.096;2023-01-23T04:45:33;25.15;;;7.88;;
43042;SDS011;28667;50.758;6.096;2023-01-23T04:48:19;27.65;;;8.93;;
43042;SDS011;28667;50.758;6.096;2023-01-23T04:50:46;30.05;;;10.48;;
43042;SDS011;28667;50.758;6.096;2023-01-23T04:53:13;40.08;;;10.77;;
43042;SDS011;28667;50.758;6.096;2023-01-23T04:55:41;25.92;;;10.13;;
43042;SDS011;28667;50.758;6.096;2023-01-23T04:58:10;27.70;;;8.88;;
43042;SDS011;28667;50.758;6.096;2023-01-23T05:00:36;37.88;;;11.35;;
43042;SDS011;28667;50.758;6.096;2023-01-23T05:03:02;24.63;;;8.35;;
43042;SDS011;28667;50.758;6.096;2023-01-23T05:05:29;26.58;;;8.93;;
43042;SDS011;28667;50.758;6.096;2023-01-23T05:07:58;24.67;;;10.55;;
43042;SDS011;28667;50.758;6.096;2023-01-23T05:10:24;28.15;;;10.55;;
43042;SDS011;28667;50.758;6.096;2023-01-23T05:12:50;27.17;;;10.07;;
43042;SDS011;28667;50.758;6.096;2023-01-23T05:15:16;23.70;;;9.02;;
43042;SDS011;28667;50.758;6.096;2023-01-23T05:17:44;30.77;;;10.02;;
43042;SDS011;28667;50.758;6.096;2023-01-23T05:20:11;35.60;;;11.07;;
43042;SDS011;28667;50.758;6.096;2023-01-23T05:22:38;21.73;;;8.35;;
43042;SDS011;28667;50.758;6.096;2023-01-23T05:25:23;18.60;;;8.60;;
43042;SDS011;28667;50.758;6.096;2023-01-23T05:27:52;28.85;;;9.05;;
43042;SDS011;28667;50.758;6.096;2023-01-23T05:30:19;19.33;;;8.48;;
43042;SDS011;28667;50.758;6.096;2023-01-23T05:32:49;22.75;;;9.20;;
43042;SDS011;28667;50.758;6.096;2023-01-23T05:35:17;23.00;;;8.93;;
43042;SDS011;28667;50.758;6.096;2023-01-23T05:37:46;27.50;;;10.00;;
43042;SDS011;28667;50.758;6.096;2023-01-23T05:40:13;22.20;;;8.35;;
43042;SDS011;28667;50.758;6.096;2023-01-23T05:42:57;26.35;;;8.50;;
43042;SDS011;28667;50.758;6.096;2023-01-23T05:45:43;22.42;;;8.02;;
43042;SDS011;28667;50.758;6.096;2023-01-23T05:48:20;25.45;;;8.93;;
43042;SDS011;28667;50.758;6.096;2023-01-23T05:50:46;21.67;;;9.02;;
43042;SDS011;28667;50.758;6.096;2023-01-23T05:53:12;18.13;;;8.48;;
43042;SDS011;28667;50.758;6.096;2023-01-23T05:55:39;23.30;;;9.27;;
43042;SDS011;28667;50.758;6.096;2023-01-23T05:58:07;33.67;;;10.45;;
43042;SDS011;28667;50.758;6.096;2023-01-23T06:00:53;22.95;;;9.15;;
43042;SDS011;28667;50.758;6.096;2023-01-23T06:03:37;23.50;;;8.77;;
43042;SDS011;28667;50.758;6.096;2023-01-23T06:06:21;25.40;;;8.85;;
43042;SDS011;28667;50.758;6.096;2023-01-23T06:08:47;28.80;;;9.70;;
43042;SDS011;28667;50.758;6.096;2023-01-23T06:11:12;25.38;;;9.40;;
43042;SDS011;28667;50.758;6.096;2023-01-23T06:13:38;37.22;;;9.95;;
43042;SDS011;28667;50.758;6.096;2023-01-23T06:16:04;25.00;;;10.02;;
43042;SDS011;28667;50.758;6.096;2023-01-23T06:18:31;32.08;;;11.00;;
43042;SDS011;28667;50.758;6.096;2023-01-23T06:20:58;23.83;;;7.93;;
43042;SDS011;28667;50.758;6.096;2023-01-23T06:23:25;22.27;;;9.00;;
43042;SDS011;28667;50.758;6.096;2023-01-23T06:25:51;19.65;;;8.77;;
43042;SDS011;28667;50.758;6.096;2023-01-23T06:28:17;18.13;;;7.65;;
43042;SDS011;28667;50.758;6.096;2023-01-23T06:30:43;21.98;;;7.53;;
43042;SDS011;28667;50.758;6.096;2023-01-23T06:33:20;26.75;;;9.60;;
43042;SDS011;28667;50.758;6.096;2023-01-23T06:35:45;23.65;;;9.05;;
43042;SDS011;28667;50.758;6.096;2023-01-23T06:38:12;26.02;;;9.93;;
43042;SDS011;28667;50.758;6.096;2023-01-23T06:40:37;25.77;;;9.43;;
43042;SDS011;28667;50.758;6.096;2023-01-23T06:43:35;24.85;;;9.38;;
43042;SDS011;28667;50.758;6.096;2023-01-23T06:46:03;22.92;;;9.52;;
43042;SDS011;28667;50.758;6.096;2023-01-23T06:48:31;24.63;;;7.93;;
43042;SDS011;28667;50.758;6.096;2023-01-23T06:51:00;25.13;;;8.85;;
43042;SDS011;28667;50.758;6.096;2023-01-23T06:53:27;24.77;;;10.02;;
43042;SDS011;28667;50.758;6.096;2023-01-23T06:55:58;24.75;;;9.07;;
43042;SDS011;28667;50.758;6.096;2023-01-23T06:58:32;25.40;;;9.93;;
43042;SDS011;28667;50.758;6.096;2023-01-23T07:00:59;24.92;;;9.57;;
43042;SDS011;28667;50.758;6.096;2023-01-23T07:03:53;22.83;;;7.18;;
43042;SDS011;28667;50.758;6.096;2023-01-23T07:06:19;24.73;;;9.40;;
43042;SDS011;28667;50.758;6.096;2023-01-23T07:08:44;23.60;;;9.85;;
43042;SDS011;28667;50.758;6.096;2023-01-23T07:11:10;20.00;;;7.45;;
43042;SDS011;28667;50.758;6.096;2023-01-23T07:13:36;22.33;;;8.20;;
43042;SDS011;28667;50.758;6.096;2023-01-23T07:16:03;31.27;;;8.85;;
43042;SDS011;28667;50.758;6.096;2023-01-23T07:18:30;32.42;;;9.40;;
43042;SDS011;28667;50.758;6.096;2023-01-23T07:20:56;17.27;;;7.88;;
43042;SDS011;28667;50.758;6.096;2023-01-23T07:23:25;20.80;;;7.85;;
43042;SDS011;28667;50.758;6.096;2023-01-23T07:25:56;23.25;;;8.52;;
43042;SDS011;28667;50.758;6.096;2023-01-23T07:28:23;21.70;;;8.82;;
43042;SDS011;28667;50.758;6.096;2023-01-23T07:30:49;20.52;;;8.95;;
43042;SDS011;28667;50.758;6.096;2023-01-23T07:33:15;19.83;;;8.82;;
43042;SDS011;28667;50.758;6.096;2023-01-23T07:35:40;20.90;;;7.38;;
43042;SDS011;28667;50.758;6.096;2023-01-23T07:38:06;20.02;;;7.70;;
43042;SDS011;28667;50.758;6.096;2023-01-23T07:40:32;18.35;;;7.60;;
43042;SDS011;28667;50.758;6.096;2023-01-23T07:42:57;17.50;;;7.38;;
43042;SDS011;28667;50.758;6.096;2023-01-23T07:45:23;20.65;;;8.38;;
43042;SDS011;28667;50.758;6.096;2023-01-23T07:47:48;19.67;;;8.00;;
43042;SDS011;28667;50.758;6.096;2023-01-23T07:50:14;21.67;;;8.25;;
43042;SDS011;28667;50.758;6.096;2023-01-23T07:52:40;22.45;;;8.82;;
43042;SDS011;28667;50.758;6.096;2023-01-23T07:55:06;21.88;;;8.07;;
43042;SDS011;28667;50.758;6.096;2023-01-23T07:57:32;17.08;;;7.63;;
43042;SDS011;28667;50.758;6.096;2023-01-23T07:59:58;20.83;;;8.85;;
43042;SDS011;28667;50.758;6.096;2023-01-23T08:02:24;22.80;;;8.70;;
43042;SDS011;28667;50.758;6.096;2023-01-23T08:04:49;19.63;;;7.55;;
43042;SDS011;28667;50.758;6.096;2023-01-23T08:07:15;20.42;;;8.50;;
43042;SDS011;28667;50.758;6.096;2023-01-23T08:09:41;20.70;;;8.18;;
43042;SDS011;28667;50.758;6.096;2023-01-23T08:12:07;25.88;;;7.97;;
43042;SDS011;28667;50.758;6.096;2023-01-23T08:14:32;16.17;;;7.32;;
43042;SDS011;28667;50.758;6.096;2023-01-23T08:16:58;27.02;;;8.77;;
43042;SDS011;28667;50.758;6.096;2023-01-23T08:19:25;21.75;;;8.10;;
43042;SDS011;28667;50.758;6.096;2023-01-23T08:21:52;20.45;;;7.55;;
43042;SDS011;28667;50.758;6.096;2023-01-23T08:24:18;21.88;;;7.85;;
43042;SDS011;28667;50.758;6.096;2023-01-23T08:26:44;19.48;;;8.68;;
43042;SDS011;28667;50.758;6.096;2023-01-23T08:29:10;20.70;;;8.57;;
43042;SDS011;28667;50.758;6.096;2023-01-23T08:31:36;17.45;;;7.47;;
43042;SDS011;28667;50.758;6.096;2023-01-23T08:34:02;16.23;;;6.80;;
43042;SDS011;28667;50.758;6.096;2023-01-23T08:36:28;19.83;;;8.10;;
43042;SDS011;28667;50.758;6.096;2023-01-23T08:38:54;19.20;;;7.82;;
43042;SDS011;28667;50.758;6.096;2023-01-23T08:41:20;14.65;;;6.75;;
43042;SDS011;28667;50.758;6.096;2023-01-23T08:43:47;18.75;;;7.85;;
43042;SDS011;28667;50.758;6.096;2023-01-23T08:46:16;20.13;;;6.90;;
43042;SDS011;28667;50.758;6.096;2023-01-23T08:48:42;16.10;;;6.90;;
43042;SDS011;28667;50.758;6.096;2023-01-23T08:51:09;16.00;;;7.43;;
43042;SDS011;28667;50.758;6.096;2023-01-23T08:53:37;18.13;;;7.90;;
43042;SDS011;28667;50.758;6.096;2023-01-23T08:56:07;17.08;;;7.15;;
43042;SDS011;28667;50.758;6.096;2023-01-23T08:58:37;12.95;;;7.25;;
43042;SDS011;28667;50.758;6.096;2023-01-23T09:01:03;17.25;;;6.93;;
43042;SDS011;28667;50.758;6.096;2023-01-23T09:03:29;18.10;;;7.13;;
43042;SDS011;28667;50.758;6.096;2023-01-23T09:05:54;17.42;;;6.25;;
43042;SDS011;28667;50.758;6.096;2023-01-23T09:08:24;17.20;;;7.82;;
43042;SDS011;28667;50.758;6.096;2023-01-23T09:10:50;17.50;;;7.80;;
43042;SDS011;28667;50.758;6.096;2023-01-23T09:13:16;18.35;;;7.50;;
43042;SDS011;28667;50.758;6.096;2023-01-23T09:15:43;13.30;;;6.30;;
43042;SDS011;28667;50.758;6.096;2023-01-23T09:18:10;15.23;;;7.03;;
43042;SDS011;28667;50.758;6.096;2023-01-23T09:20:36;17.70;;;7.10;;
43042;SDS011;28667;50.758;6.096;2023-01-23T09:23:02;14.07;;;7.18;;
43042;SDS011;28667;50.758;6.096;2023-01-23T09:25:28;16.92;;;7.15;;
43042;SDS011;28667;50.758;6.096;2023-01-23T09:27:55;18.00;;;7.90;;
43042;SDS011;28667;50.758;6.096;2023-01-23T09:30:21;16.95;;;7.22;;
43042;SDS011;28667;50.758;6.096;2023-01-23T09:32:47;19.38;;;7.68;;
43042;SDS011;28667;50.758;6.096;2023-01-23T09:35:12;18.33;;;7.45;;
43042;SDS011;28667;50.758;6.096;2023-01-23T09:37:38;16.30;;;7.03;;
43042;SDS011;28667;50.758;6.096;2023-01-23T09:40:22;12.02;;;5.80;;
43042;SDS011;28667;50.758;6.096;2023-01-23T09:42:50;19.77;;;7.40;;
43042;SDS011;28667;50.758;6.096;2023-01-23T09:45:21;18.67;;;6.50;;
43042;SDS011;28667;50.758;6.096;2023-01-23T09:47:56;16.83;;;7.15;;
43042;SDS011;28667;50.758;6.096;2023-01-23T09:50:51;17.73;;;6.57;;
43042;SDS011;28667;50.758;6.096;2023-01-23T09:53:25;35.20;;;8.10;;
43042;SDS011;28667;50.758;6.096;2023-01-23T09:58:30;17.98;;;7.63;;
43042;SDS011;28667;50.758;6.096;2023-01-23T10:01:01;15.93;;;6.80;;
43042;SDS011;28667;50.758;6.096;2023-01-23T10:03:29;13.32;;;6.63;;
43042;SDS011;28667;50.758;6.096;2023-01-23T10:11:47;16.90;;;7.28;;
43042;SDS011;28667;50.758;6.096;2023-01-23T10:22:47;19.67;;;7.88;;
43042;SDS011;28667;50.758;6.096;2023-01-23T10:25:26;13.73;;;6.75;;
43042;SDS011;28667;50.758;6.096;2023-01-23T10:28:04;19.15;;;6.43;;
43042;SDS011;28667;50.758;6.096;2023-01-23T10:30:41;20.10;;;7.03;;
43042;SDS011;28667;50.758;6.096;2023-01-23T10:33:16;13.73;;;6.22;;
43042;SDS011;28667;50.758;6.096;2023-01-23T10:35:55;18.20;;;7.47;;
43042;SDS011;28667;50.758;6.096;2023-01-23T10:41:08;12.48;;;5.28;;
43042;SDS011;28667;50.758;6.096;2023-01-23T10:43:39;17.10;;;8.10;;
43042;SDS011;28667;50.758;6.096;2023-01-23T10:46:13;18.95;;;7.15;;
43042;SDS011;28667;50.758;6.096;2023-01-23T10:48:48;23.10;;;8.70;;
43042;SDS011;28667;50.758;6.096;2023-01-23T10:53:59;15.85;;;6.95;;
43042;SDS011;28667;50.758;6.096;2023-01-23T10:59:37;16.63;;;6.90;;
43042;SDS011;28667;50.758;6.096;2023-01-23T11:04:39;16.27;;;8.25;;
43042;SDS011;28667;50.758;6.096;2023-01-23T11:07:11;15.18;;;6.47;;
43042;SDS011;28667;50.758;6.096;2023-01-23T11:12:29;12.60;;;6.53;;
43042;SDS011;28667;50.758;6.096;2023-01-23T11:17:46;15.20;;;7.70;;
43042;SDS011;28667;50.758;6.096;2023-01-23T11:23:13;12.15;;;6.35;;
43042;SDS011;28667;50.758;6.096;2023-01-23T11:25:42;14.52;;;6.07;;
43042;SDS011;28667;50.758;6.096;2023-01-23T11:28:23;15.52;;;6.55;;
43042;SDS011;28667;50.758;6.096;2023-01-23T11:31:05;16.33;;;6.93;;
43042;SDS011;28667;50.758;6.096;2023-01-23T11:33:45;15.00;;;6.47;;
43042;SDS011;28667;50.758;6.096;2023-01-23T11:39:08;17.55;;;7.05;;
43042;SDS011;28667;50.758;6.096;2023-01-23T11:41:41;14.30;;;7.47;;
43042;SDS011;28667;50.758;6.096;2023-01-23T11:44:12;22.15;;;8.32;;
43042;SDS011;28667;50.758;6.096;2023-01-23T11:46:58;18.85;;;7.75;;
43042;SDS011;28667;50.758;6.096;2023-01-23T11:52:26;15.55;;;6.03;;
43042;SDS011;28667;50.758;6.096;2023-01-23T12:09:01;13.68;;;7.38;;
43042;SDS011;28667;50.758;6.096;2023-01-23T12:11:54;14.95;;;7.80;;
43042;SDS011;28667;50.758;6.096;2023-01-23T12:17:09;21.23;;;6.93;;
43042;SDS011;28667;50.758;6.096;2023-01-23T12:25:39;14.43;;;6.38;;
43042;SDS011;28667;50.758;6.096;2023-01-23T12:33:33;23.58;;;8.32;;
43042;SDS011;28667;50.758;6.096;2023-01-23T12:36:38;16.60;;;6.95;;
43042;SDS011;28667;50.758;6.096;2023-01-23T12:42:14;17.00;;;7.00;;
43042;SDS011;28667;50.758;6.096;2023-01-23T12:53:10;13.60;;;6.65;;
43042;SDS011;28667;50.758;6.096;2023-01-23T12:58:33;15.25;;;6.47;;
43042;SDS011;28667;50.758;6.096;2023-01-23T13:11:45;18.27;;;7.88;;
43042;SDS011;28667;50.758;6.096;2023-01-23T13:16:54;12.43;;;6.35;;
43042;SDS011;28667;50.758;6.096;2023-01-23T13:19:31;13.98;;;6.70;;
43042;SDS011;28667;50.758;6.096;2023-01-23T13:22:29;16.50;;;6.60;;
43042;SDS011;28667;50.758;6.096;2023-01-23T13:27:42;10.40;;;5.50;;
43042;SDS011;28667;50.758;6.096;2023-01-23T13:46:41;17.85;;;7.32;;
43042;SDS011;28667;50.758;6.096;2023-01-23T13:49:37;14.52;;;6.85;;
43042;SDS011;28667;50.758;6.096;2023-01-23T13:55:17;20.60;;;7.38;;
43042;SDS011;28667;50.758;6.096;2023-01-23T13:58:24;15.45;;;6.68;;
43042;SDS011;28667;50.758;6.096;2023-01-23T14:00:56;12.75;;;6.13;;
43042;SDS011;28667;50.758;6.096;2023-01-23T14:03:48;14.90;;;6.97;;
43042;SDS011;28667;50.758;6.096;2023-01-23T14:06:35;20.05;;;6.80;;
43042;SDS011;28667;50.758;6.096;2023-01-23T14:09:02;17.85;;;8.13;;
43042;SDS011;28667;50.758;6.096;2023-01-23T14:11:35;14.02;;;6.03;;
43042;SDS011;28667;50.758;6.096;2023-01-23T14:14:02;12.05;;;6.10;;
43042;SDS011;28667;50.758;6.096;2023-01-23T14:16:49;16.58;;;6.63;;
43042;SDS011;28667;50.758;6.096;2023-01-23T14:19:26;18.58;;;8.07;;
43042;SDS011;28667;50.758;6.096;2023-01-23T14:21:58;14.82;;;6.60;;
43042;SDS011;28667;50.758;6.096;2023-01-23T14:24:40;15.63;;;7.18;;
43042;SDS011;28667;50.758;6.096;2023-01-23T14:27:21;12.18;;;5.57;;
43042;SDS011;28667;50.758;6.096;2023-01-23T14:30:08;14.18;;;7.93;;
43042;SDS011;28667;50.758;6.096;2023-01-23T14:32:42;18.15;;;6.32;;
43042;SDS011;28667;50.758;6.096;2023-01-23T14:40:23;14.15;;;6.88;;
43042;SDS011;28667;50.758;6.096;2023-01-23T14:43:00;15.85;;;7.32;;
43042;SDS011;28667;50.758;6.096;2023-01-23T14:45:28;20.00;;;7.90;;
43042;SDS011;28667;50.758;6.096;2023-01-23T14:47:56;18.63;;;8.38;;
43042;SDS011;28667;50.758;6.096;2023-01-23T14:50:25;15.43;;;5.43;;
43042;SDS011;28667;50.758;6.096;2023-01-23T14:53:00;10.10;;;5.65;;
43042;SDS011;28667;50.758;6.096;2023-01-23T14:55:28;16.60;;;6.88;;
43042;SDS011;28667;50.758;6.096;2023-01-23T14:57:55;17.73;;;7.03;;
43042;SDS011;28667;50.758;6.096;2023-01-23T15:00:23;20.73;;;8.05;;
43042;SDS011;28667;50.758;6.096;2023-01-23T15:02:50;15.80;;;6.97;;
43042;SDS011;28667;50.758;6.096;2023-01-23T15:05:19;16.67;;;7.22;;
43042;SDS011;28667;50.758;6.096;2023-01-23T15:08:00;13.45;;;6.28;;
43042;SDS011;28667;50.758;6.096;2023-01-23T15:10:46;13.00;;;6.43;;
43042;SDS011;28667;50.758;6.096;2023-01-23T15:13:23;13.80;;;6.30;;
43042;SDS011;28667;50.758;6.096;2023-01-23T15:16:04;17.58;;;5.22;;
43042;SDS011;28667;50.758;6.096;2023-01-23T15:18:36;16.90;;;6.18;;
43042;SDS011;28667;50.758;6.096;2023-01-23T15:21:06;22.00;;;7.25;;
43042;SDS011;28667;50.758;6.096;2023-01-23T15:23:36;16.48;;;6.70;;
43042;SDS011;28667;50.758;6.096;2023-01-23T15:28:48;19.95;;;6.53;;
43042;SDS011;28667;50.758;6.096;2023-01-23T15:36:38;11.20;;;6.15;;
43042;SDS011;28667;50.758;6.096;2023-01-23T15:39:34;16.80;;;6.50;;
43042;SDS011;28667;50.758;6.096;2023-01-23T15:42:26;22.13;;;7.57;;
43042;SDS011;28667;50.758;6.096;2023-01-23T15:44:54;12.32;;;5.25;;
43042;SDS011;28667;50.758;6.096;2023-01-23T15:47:19;17.95;;;5.72;;
43042;SDS011;28667;50.758;6.096;2023-01-23T15:49:45;12.70;;;6.05;;
43042;SDS011;28667;50.758;6.096;2023-01-23T15:52:24;14.80;;;5.85;;
43042;SDS011;28667;50.758;6.096;2023-01-23T15:55:02;11.32;;;5.45;;
43042;SDS011;28667;50.758;6.096;2023-01-23T15:57:29;15.80;;;5.40;;
43042;SDS011;28667;50.758;6.096;2023-01-23T15:59:55;14.98;;;6.80;;
43042;SDS011;28667;50.758;6.096;2023-01-23T16:02:21;11.43;;;4.72;;
43042;SDS011;28667;50.758;6.096;2023-01-23T16:04:48;14.77;;;6.15;;
43042;SDS011;28667;50.758;6.096;2023-01-23T16:07:21;10.85;;;5.70;;
43042;SDS011;28667;50.758;6.096;2023-01-23T16:09:49;10.55;;;5.45;;
43042;SDS011;28667;50.758;6.096;2023-01-23T16:12:17;8.20;;;4.82;;
43042;SDS011;28667;50.758;6.096;2023-01-23T16:14:44;17.20;;;6.50;;
43042;SDS011;28667;50.758;6.096;2023-01-23T16:17:11;12.10;;;5.20;;
43042;SDS011;28667;50.758;6.096;2023-01-23T16:19:37;12.48;;;5.82;;
43042;SDS011;28667;50.758;6.096;2023-01-23T16:22:03;12.85;;;6.18;;
43042;SDS011;28667;50.758;6.096;2023-01-23T16:24:29;13.82;;;6.80;;
43042;SDS011;28667;50.758;6.096;2023-01-23T16:27:00;13.43;;;5.90;;
43042;SDS011;28667;50.758;6.096;2023-01-23T16:29:30;14.23;;;5.90;;
43042;SDS011;28667;50.758;6.096;2023-01-23T16:31:57;9.23;;;4.70;;
43042;SDS011;28667;50.758;6.096;2023-01-23T16:34:24;13.15;;;6.35;;
43042;SDS011;28667;50.758;6.096;2023-01-23T16:36:51;12.13;;;6.05;;
43042;SDS011;28667;50.758;6.096;2023-01-23T16:39:24;12.23;;;6.13;;
43042;SDS011;28667;50.758;6.096;2023-01-23T16:41:51;14.35;;;6.63;;
43042;SDS011;28667;50.758;6.096;2023-01-23T16:44:20;14.63;;;6.45;;
43042;SDS011;28667;50.758;6.096;2023-01-23T16:46:48;15.38;;;6.20;;
43042;SDS011;28667;50.758;6.096;2023-01-23T16:49:17;12.77;;;5.25;;
43042;SDS011;28667;50.758;6.096;2023-01-23T16:51:57;14.43;;;6.68;;
43042;SDS011;28667;50.758;6.096;2023-01-23T16:54:25;19.23;;;5.72;;
43042;SDS011;28667;50.758;6.096;2023-01-23T16:56:51;16.92;;;7.53;;
43042;SDS011;28667;50.758;6.096;2023-01-23T16:59:27;20.25;;;9.05;;
43042;SDS011;28667;50.758;6.096;2023-01-23T17:01:59;17.10;;;8.60;;
43042;SDS011;28667;50.758;6.096;2023-01-23T17:04:30;12.05;;;6.65;;
43042;SDS011;28667;50.758;6.096;2023-01-23T17:06:56;11.82;;;6.65;;
43042;SDS011;28667;50.758;6.096;2023-01-23T17:09:22;19.20;;;8.23;;